sensor_id;sensor_type;location;lat;lon;timestamp;pressure;altitude;pressure_sealevel;temperature;humidity
7333;BME280;3707;43.618;25.342;2023-03-20T00:00:17;100505.97;;;9.14;100.00
7333;BME280;3707;43.618;25.342;2023-03-20T00:02:45;100506.63;;;9.06;100.00
7333;BME280;3707;43.618;25.342;2023-03-20T00:05:17;100504.13;;;9.09;100.00
7333;BME280;3707;43.618;25.342;2023-03-20T00:07:47;100500.50;;;9.02;100.00
7333;BME280;3707;43.618;25.342;2023-03-20T00:10:16;100501.00;;;8.90;100.00
7333;BME280;3707;43.618;25.342;2023-03-20T00:12:44;100493.84;;;8.82;100.00
7333;BME280;3707;43.618;25.342;2023-03-20T00:15:24;100487.50;;;8.71;100.00
7333;BME280;3707;43.618;25.342;2023-03-20T00:17:52;100501.88;;;8.61;100.00
7333;BME280;3707;43.618;25.342;2023-03-20T00:20:20;100499.06;;;8.54;100.00
7333;BME280;3707;43.618;25.342;2023-03-20T00:22:48;100464.63;;;8.26;100.00
7333;BME280;3707;43.618;25.342;2023-03-20T00:25:17;100496.72;;;8.33;100.00
7333;BME280;3707;43.618;25.342;2023-03-20T00:27:45;100470.94;;;8.08;100.00
7333;BME280;3707;43.618;25.342;2023-03-20T00:30:24;100492.06;;;8.23;100.00
7333;BME280;3707;43.618;25.342;2023-03-20T00:32:54;100484.81;;;8.11;100.00
7333;BME280;3707;43.618;25.342;2023-03-20T00:35:24;100469.03;;;8.02;100.00
7333;BME280;3707;43.618;25.342;2023-03-20T00:37:54;100477.06;;;8.11;100.00
7333;BME280;3707;43.618;25.342;2023-03-20T00:40:23;100442.97;;;7.94;100.00
7333;BME280;3707;43.618;25.342;2023-03-20T00:42:57;100455.16;;;7.98;100.00
7333;BME280;3707;43.618;25.342;2023-03-20T00:45:25;100469.81;;;7.99;100.00
7333;BME280;3707;43.618;25.342;2023-03-20T00:47:53;100468.00;;;7.97;100.00
7333;BME280;3707;43.618;25.342;2023-03-20T00:50:21;100464.78;;;8.04;100.00
7333;BME280;3707;43.618;25.342;2023-03-20T00:52:49;100445.31;;;7.87;100.00
7333;BME280;3707;43.618;25.342;2023-03-20T00:55:20;100456.06;;;8.01;100.00
7333;BME280;3707;43.618;25.342;2023-03-20T00:57:48;100457.50;;;7.91;100.00
7333;BME280;3707;43.618;25.342;2023-03-20T01:00:22;100431.19;;;7.76;100.00
7333;BME280;3707;43.618;25.342;2023-03-20T01:02:51;100444.25;;;7.80;100.00
7333;BME280;3707;43.618;25.342;2023-03-20T01:05:19;100430.94;;;7.68;100.00
7333;BME280;3707;43.618;25.342;2023-03-20T01:07:46;100443.03;;;7.69;100.00
7333;BME280;3707;43.618;25.342;2023-03-20T01:10:14;100424.38;;;7.51;100.00
7333;BME280;3707;43.618;25.342;2023-03-20T01:12:43;100407.09;;;7.48;100.00
7333;BME280;3707;43.618;25.342;2023-03-20T01:15:18;100437.91;;;7.71;100.00
7333;BME280;3707;43.618;25.342;2023-03-20T01:17:45;100430.91;;;7.67;100.00
7333;BME280;3707;43.618;25.342;2023-03-20T01:20:17;100429.25;;;7.69;100.00
7333;BME280;3707;43.618;25.342;2023-03-20T01:22:45;100404.53;;;7.48;100.00
7333;BME280;3707;43.618;25.342;2023-03-20T01:25:12;100435.84;;;7.59;100.00
7333;BME280;3707;43.618;25.342;2023-03-20T01:27:39;100434.84;;;7.56;100.00
7333;BME280;3707;43.618;25.342;2023-03-20T01:30:17;100443.56;;;7.59;100.00
7333;BME280;3707;43.618;25.342;2023-03-20T01:32:44;100442.34;;;7.48;100.00
7333;BME280;3707;43.618;25.342;2023-03-20T01:35:13;100424.84;;;7.39;100.00
7333;BME280;3707;43.618;25.342;2023-03-20T01:37:41;100423.16;;;7.40;100.00
7333;BME280;3707;43.618;25.342;2023-03-20T01:40:25;100397.91;;;7.31;100.00
7333;BME280;3707;43.618;25.342;2023-03-20T01:42:55;100430.31;;;7.48;100.00
7333;BME280;3707;43.618;25.342;2023-03-20T01:45:25;100410.19;;;7.38;100.00
7333;BME280;3707;43.618;25.342;2023-03-20T01:47:55;100431.94;;;7.45;100.00
7333;BME280;3707;43.618;25.342;2023-03-20T01:50:28;100426.88;;;7.49;100.00
7333;BME280;3707;43.618;25.342;2023-03-20T01:53:02;100434.00;;;7.57;100.00
7333;BME280;3707;43.618;25.342;2023-03-20T01:55:30;100426.16;;;7.54;100.00
7333;BME280;3707;43.618;25.342;2023-03-20T01:58:00;100425.34;;;7.55;100.00
7333;BME280;3707;43.618;25.342;2023-03-20T02:00:30;100418.44;;;7.54;100.00
7333;BME280;3707;43.618;25.342;2023-03-20T02:02:57;100422.59;;;7.48;100.00
7333;BME280;3707;43.618;25.342;2023-03-20T02:05:25;100405.16;;;7.41;100.00
7333;BME280;3707;43.618;25.342;2023-03-20T02:08:05;100422.63;;;7.50;100.00
7333;BME280;3707;43.618;25.342;2023-03-20T02:10:36;100426.59;;;7.40;100.00
7333;BME280;3707;43.618;25.342;2023-03-20T02:13:03;100418.81;;;7.39;100.00
7333;BME280;3707;43.618;25.342;2023-03-20T02:15:32;100425.72;;;7.40;100.00
7333;BME280;3707;43.618;25.342;2023-03-20T02:18:00;100431.66;;;7.37;100.00
7333;BME280;3707;43.618;25.342;2023-03-20T02:20:35;100427.41;;;7.39;100.00
7333;BME280;3707;43.618;25.342;2023-03-20T02:23:31;100434.25;;;7.37;100.00
7333;BME280;3707;43.618;25.342;2023-03-20T02:26:40;100429.13;;;7.39;100.00
7333;BME280;3707;43.618;25.342;2023-03-20T02:29:42;100424.81;;;7.38;100.00
7333;BME280;3707;43.618;25.342;2023-03-20T02:32:46;100399.31;;;7.22;100.00
7333;BME280;3707;43.618;25.342;2023-03-20T02:38:50;100421.81;;;7.26;100.00
7333;BME280;3707;43.618;25.342;2023-03-20T02:41:24;100420.72;;;7.19;100.00
7333;BME280;3707;43.618;25.342;2023-03-20T02:43:59;100415.50;;;7.18;100.00
7333;BME280;3707;43.618;25.342;2023-03-20T02:46:35;100419.75;;;7.16;100.00
7333;BME280;3707;43.618;25.342;2023-03-20T02:49:09;100408.00;;;7.24;100.00
7333;BME280;3707;43.618;25.342;2023-03-20T02:51:43;100405.00;;;7.12;100.00
7333;BME280;3707;43.618;25.342;2023-03-20T02:54:20;100427.75;;;7.23;100.00
7333;BME280;3707;43.618;25.342;2023-03-20T02:56:57;100421.66;;;7.21;100.00
7333;BME280;3707;43.618;25.342;2023-03-20T02:59:28;100403.84;;;7.04;100.00
7333;BME280;3707;43.618;25.342;2023-03-20T03:02:03;100408.97;;;7.02;100.00
7333;BME280;3707;43.618;25.342;2023-03-20T03:04:34;100401.78;;;6.93;100.00
7333;BME280;3707;43.618;25.342;2023-03-20T03:07:04;100405.31;;;6.95;100.00
7333;BME280;3707;43.618;25.342;2023-03-20T03:09:37;100370.22;;;6.75;100.00
7333;BME280;3707;43.618;25.342;2023-03-20T03:12:09;100377.94;;;6.74;100.00
7333;BME280;3707;43.618;25.342;2023-03-20T03:14:39;100395.28;;;6.79;100.00
7333;BME280;3707;43.618;25.342;2023-03-20T03:17:09;100395.50;;;6.85;100.00
7333;BME280;3707;43.618;25.342;2023-03-20T03:19:39;100388.34;;;6.77;100.00
7333;BME280;3707;43.618;25.342;2023-03-20T03:22:08;100368.06;;;6.62;100.00
7333;BME280;3707;43.618;25.342;2023-03-20T03:24:43;100392.00;;;6.83;100.00
7333;BME280;3707;43.618;25.342;2023-03-20T03:27:16;100375.97;;;6.67;100.00
7333;BME280;3707;43.618;25.342;2023-03-20T03:29:49;100375.13;;;6.68;100.00
7333;BME280;3707;43.618;25.342;2023-03-20T03:32:22;100394.81;;;6.66;100.00
7333;BME280;3707;43.618;25.342;2023-03-20T03:34:48;100393.63;;;6.56;100.00
7333;BME280;3707;43.618;25.342;2023-03-20T03:37:23;100394.53;;;6.58;100.00
7333;BME280;3707;43.618;25.342;2023-03-20T03:39:57;100378.91;;;6.54;100.00
7333;BME280;3707;43.618;25.342;2023-03-20T03:42:29;100372.50;;;6.42;100.00
7333;BME280;3707;43.618;25.342;2023-03-20T03:45:01;100386.34;;;6.46;100.00
7333;BME280;3707;43.618;25.342;2023-03-20T03:47:32;100381.09;;;6.43;100.00
7333;BME280;3707;43.618;25.342;2023-03-20T03:50:03;100381.94;;;6.42;100.00
7333;BME280;3707;43.618;25.342;2023-03-20T03:52:32;100371.22;;;6.31;100.00
7333;BME280;3707;43.618;25.342;2023-03-20T03:55:04;100401.81;;;6.46;100.00
7333;BME280;3707;43.618;25.342;2023-03-20T03:57:40;100393.25;;;6.47;100.00
7333;BME280;3707;43.618;25.342;2023-03-20T04:00:10;100396.72;;;6.47;100.00
7333;BME280;3707;43.618;25.342;2023-03-20T04:02:40;100395.91;;;6.48;100.00
7333;BME280;3707;43.618;25.342;2023-03-20T04:05:08;100374.69;;;6.32;100.00
7333;BME280;3707;43.618;25.342;2023-03-20T04:07:35;100401.81;;;6.46;100.00
7333;BME280;3707;43.618;25.342;2023-03-20T04:10:05;100399.41;;;6.51;100.00
7333;BME280;3707;43.618;25.342;2023-03-20T04:12:34;100389.66;;;6.42;100.00
7333;BME280;3707;43.618;25.342;2023-03-20T04:15:02;100410.31;;;6.43;100.00
7333;BME280;3707;43.618;25.342;2023-03-20T04:17:29;100401.75;;;6.44;100.00
7333;BME280;3707;43.618;25.342;2023-03-20T04:19:56;100404.44;;;6.47;100.00
7333;BME280;3707;43.618;25.342;2023-03-20T04:22:22;100383.19;;;6.29;100.00
7333;BME280;3707;43.618;25.342;2023-03-20T04:24:49;100388.50;;;6.34;100.00
7333;BME280;3707;43.618;25.342;2023-03-20T04:27:18;100407.41;;;6.58;100.00
7333;BME280;3707;43.618;25.342;2023-03-20T04:29:46;100405.22;;;6.45;100.00
7333;BME280;3707;43.618;25.342;2023-03-20T04:32:13;100390.38;;;6.38;100.00
7333;BME280;3707;43.618;25.342;2023-03-20T04:34:39;100402.47;;;6.40;100.00
7333;BME280;3707;43.618;25.342;2023-03-20T04:37:06;100407.84;;;6.46;100.00
7333;BME280;3707;43.618;25.342;2023-03-20T04:39:34;100393.81;;;6.38;100.00
7333;BME280;3707;43.618;25.342;2023-03-20T04:42:01;100405.84;;;6.39;100.00
7333;BME280;3707;43.618;25.342;2023-03-20T04:44:30;100410.28;;;6.42;100.00
7333;BME280;3707;43.618;25.342;2023-03-20T04:46:57;100415.25;;;6.37;100.00
7333;BME280;3707;43.618;25.342;2023-03-20T04:49:24;100426.63;;;6.44;100.00
7333;BME280;3707;43.618;25.342;2023-03-20T04:51:51;100395.56;;;6.39;100.00
7333;BME280;3707;43.618;25.342;2023-03-20T04:54:19;100426.50;;;6.63;100.00
7333;BME280;3707;43.618;25.342;2023-03-20T04:56:45;100429.78;;;6.83;100.00
7333;BME280;3707;43.618;25.342;2023-03-20T04:59:12;100421.97;;;7.05;100.00
7333;BME280;3707;43.618;25.342;2023-03-20T05:01:40;100436.59;;;7.31;100.00
7333;BME280;3707;43.618;25.342;2023-03-20T05:04:07;100439.41;;;7.37;100.00
7333;BME280;3707;43.618;25.342;2023-03-20T05:06:34;100444.91;;;7.48;100.00
7333;BME280;3707;43.618;25.342;2023-03-20T05:09:01;100445.38;;;7.62;100.00
7333;BME280;3707;43.618;25.342;2023-03-20T05:11:28;100438.75;;;7.70;100.00
7333;BME280;3707;43.618;25.342;2023-03-20T05:13:55;100360.25;;;7.36;100.00
7333;BME280;3707;43.618;25.342;2023-03-20T05:16:22;100436.22;;;7.98;100.00
7333;BME280;3707;43.618;25.342;2023-03-20T05:18:51;100451.25;;;8.11;100.00
7333;BME280;3707;43.618;25.342;2023-03-20T05:21:17;100442.66;;;8.12;100.00
7333;BME280;3707;43.618;25.342;2023-03-20T05:23:44;100448.09;;;8.21;100.00
7333;BME280;3707;43.618;25.342;2023-03-20T05:26:11;100452.91;;;8.09;100.00
7333;BME280;3707;43.618;25.342;2023-03-20T05:28:38;100454.06;;;8.19;100.00
7333;BME280;3707;43.618;25.342;2023-03-20T05:31:05;100427.44;;;8.21;100.00
7333;BME280;3707;43.618;25.342;2023-03-20T05:33:32;100450.91;;;8.56;100.00
7333;BME280;3707;43.618;25.342;2023-03-20T05:36:01;100453.25;;;8.78;100.00
7333;BME280;3707;43.618;25.342;2023-03-20T05:38:28;100449.25;;;8.89;100.00
7333;BME280;3707;43.618;25.342;2023-03-20T05:40:55;100455.78;;;9.08;100.00
7333;BME280;3707;43.618;25.342;2023-03-20T05:43:23;100434.97;;;9.03;100.00
7333;BME280;3707;43.618;25.342;2023-03-20T05:45:50;100466.59;;;9.24;100.00
7333;BME280;3707;43.618;25.342;2023-03-20T05:48:17;100471.94;;;9.30;100.00
7333;BME280;3707;43.618;25.342;2023-03-20T05:50:43;100468.25;;;9.22;100.00
7333;BME280;3707;43.618;25.342;2023-03-20T05:53:12;100471.94;;;9.30;100.00
7333;BME280;3707;43.618;25.342;2023-03-20T05:55:38;100467.50;;;9.26;100.00
7333;BME280;3707;43.618;25.342;2023-03-20T05:58:06;100473.66;;;9.31;100.00
7333;BME280;3707;43.618;25.342;2023-03-20T06:00:33;100459.75;;;9.26;100.00
7333;BME280;3707;43.618;25.342;2023-03-20T06:03:00;100470.03;;;9.23;100.00
7333;BME280;3707;43.618;25.342;2023-03-20T06:05:26;100460.59;;;9.60;100.00
7333;BME280;3707;43.618;25.342;2023-03-20T06:07:53;100443.88;;;9.47;100.00
7333;BME280;3707;43.618;25.342;2023-03-20T06:10:22;100476.44;;;9.72;100.00
7333;BME280;3707;43.618;25.342;2023-03-20T06:12:48;100476.69;;;9.81;100.00
7333;BME280;3707;43.618;25.342;2023-03-20T06:15:15;100455.84;;;9.76;100.00
7333;BME280;3707;43.618;25.342;2023-03-20T06:17:42;100481.31;;;9.95;100.00
7333;BME280;3707;43.618;25.342;2023-03-20T06:20:10;100488.41;;;10.03;100.00
7333;BME280;3707;43.618;25.342;2023-03-20T06:22:37;100488.31;;;9.64;100.00
7333;BME280;3707;43.618;25.342;2023-03-20T06:25:05;100494.56;;;9.72;100.00
7333;BME280;3707;43.618;25.342;2023-03-20T06:27:33;100495.03;;;9.56;100.00
7333;BME280;3707;43.618;25.342;2023-03-20T06:30:00;100484.34;;;9.43;100.00
7333;BME280;3707;43.618;25.342;2023-03-20T06:32:27;100490.69;;;9.55;100.00
7333;BME280;3707;43.618;25.342;2023-03-20T06:34:53;100493.03;;;9.80;100.00
7333;BME280;3707;43.618;25.342;2023-03-20T06:37:20;100474.38;;;9.93;100.00
7333;BME280;3707;43.618;25.342;2023-03-20T06:39:47;100486.66;;;10.02;100.00
7333;BME280;3707;43.618;25.342;2023-03-20T06:42:14;100481.03;;;10.18;100.00
7333;BME280;3707;43.618;25.342;2023-03-20T06:44:43;100473.53;;;10.30;100.00
7333;BME280;3707;43.618;25.342;2023-03-20T06:47:10;100463.97;;;10.27;100.00
7333;BME280;3707;43.618;25.342;2023-03-20T06:49:36;100477.31;;;10.44;100.00
7333;BME280;3707;43.618;25.342;2023-03-20T06:52:04;100485.56;;;10.67;100.00
7333;BME280;3707;43.618;25.342;2023-03-20T06:54:31;100459.88;;;10.01;100.00
7333;BME280;3707;43.618;25.342;2023-03-20T06:56:57;100493.50;;;9.98;100.00
7333;BME280;3707;43.618;25.342;2023-03-20T06:59:24;100501.09;;;9.92;100.00
7333;BME280;3707;43.618;25.342;2023-03-20T07:01:53;100502.91;;;9.94;100.00
7333;BME280;3707;43.618;25.342;2023-03-20T07:04:20;100503.41;;;10.14;100.00
7333;BME280;3707;43.618;25.342;2023-03-20T07:06:48;100507.19;;;10.28;100.00
7333;BME280;3707;43.618;25.342;2023-03-20T07:09:14;100513.78;;;10.53;100.00
7333;BME280;3707;43.618;25.342;2023-03-20T07:11:43;100504.19;;;10.49;100.00
7333;BME280;3707;43.618;25.342;2023-03-20T07:14:10;100492.03;;;10.45;100.00
7333;BME280;3707;43.618;25.342;2023-03-20T07:16:37;100501.56;;;10.88;100.00
7333;BME280;3707;43.618;25.342;2023-03-20T07:19:05;100502.22;;;11.21;100.00
7333;BME280;3707;43.618;25.342;2023-03-20T07:21:32;100505.56;;;11.14;100.00
7333;BME280;3707;43.618;25.342;2023-03-20T07:23:59;100504.88;;;11.24;100.00
7333;BME280;3707;43.618;25.342;2023-03-20T07:26:26;100470.41;;;11.31;100.00
7333;BME280;3707;43.618;25.342;2023-03-20T07:28:53;100504.19;;;11.79;100.00
7333;BME280;3707;43.618;25.342;2023-03-20T07:31:22;100497.47;;;11.92;100.00
7333;BME280;3707;43.618;25.342;2023-03-20T07:33:49;100495.91;;;12.02;100.00
7333;BME280;3707;43.618;25.342;2023-03-20T07:36:17;100467.59;;;12.21;100.00
7333;BME280;3707;43.618;25.342;2023-03-20T07:38:44;100477.28;;;12.31;100.00
7333;BME280;3707;43.618;25.342;2023-03-20T07:41:10;100502.22;;;12.19;100.00
7333;BME280;3707;43.618;25.342;2023-03-20T07:43:37;100484.06;;;12.22;100.00
7333;BME280;3707;43.618;25.342;2023-03-20T07:46:06;100498.78;;;12.20;100.00
7333;BME280;3707;43.618;25.342;2023-03-20T07:48:33;100488.59;;;12.33;100.00
7333;BME280;3707;43.618;25.342;2023-03-20T07:51:00;100490.41;;;12.40;99.10
7333;BME280;3707;43.618;25.342;2023-03-20T07:53:28;100490.38;;;12.37;98.71
7333;BME280;3707;43.618;25.342;2023-03-20T07:55:55;100496.56;;;12.49;99.06
7333;BME280;3707;43.618;25.342;2023-03-20T07:58:21;100489.09;;;12.70;96.67
7333;BME280;3707;43.618;25.342;2023-03-20T08:00:48;100491.06;;;12.92;95.90
7333;BME280;3707;43.618;25.342;2023-03-20T08:03:15;100478.78;;;12.79;95.17
7333;BME280;3707;43.618;25.342;2023-03-20T08:05:42;100491.94;;;12.89;93.92
7333;BME280;3707;43.618;25.342;2023-03-20T08:08:09;100495.38;;;12.87;96.75
7333;BME280;3707;43.618;25.342;2023-03-20T08:10:37;100497.50;;;13.20;93.76
7333;BME280;3707;43.618;25.342;2023-03-20T08:13:04;100495.13;;;13.39;98.89
7333;BME280;3707;43.618;25.342;2023-03-20T08:15:31;100500.53;;;13.58;91.99
7333;BME280;3707;43.618;25.342;2023-03-20T08:17:58;100503.94;;;13.51;89.55
7333;BME280;3707;43.618;25.342;2023-03-20T08:20:25;100499.34;;;13.28;89.94
7333;BME280;3707;43.618;25.342;2023-03-20T08:22:52;100494.84;;;13.12;90.33
7333;BME280;3707;43.618;25.342;2023-03-20T08:25:18;100514.75;;;13.10;90.09
7333;BME280;3707;43.618;25.342;2023-03-20T08:27:47;100513.69;;;12.96;90.57
7333;BME280;3707;43.618;25.342;2023-03-20T08:30:14;100506.97;;;13.13;88.90
7333;BME280;3707;43.618;25.342;2023-03-20T08:32:41;100512.03;;;13.01;87.43
7333;BME280;3707;43.618;25.342;2023-03-20T08:35:08;100515.31;;;12.88;89.39
7333;BME280;3707;43.618;25.342;2023-03-20T08:37:37;100512.94;;;13.05;90.84
7333;BME280;3707;43.618;25.342;2023-03-20T08:40:04;100515.00;;;13.30;90.10
7333;BME280;3707;43.618;25.342;2023-03-20T08:42:31;100511.75;;;13.51;90.93
7333;BME280;3707;43.618;25.342;2023-03-20T08:45:00;100516.22;;;13.67;88.61
7333;BME280;3707;43.618;25.342;2023-03-20T08:47:27;100500.94;;;14.06;95.72
7333;BME280;3707;43.618;25.342;2023-03-20T08:49:53;100480.94;;;14.05;84.02
7333;BME280;3707;43.618;25.342;2023-03-20T08:52:20;100501.91;;;14.22;83.25
7333;BME280;3707;43.618;25.342;2023-03-20T08:54:47;100494.94;;;14.21;83.54
7333;BME280;3707;43.618;25.342;2023-03-20T08:57:14;100494.25;;;14.42;82.04
7333;BME280;3707;43.618;25.342;2023-03-20T08:59:41;100480.38;;;14.47;81.99
7333;BME280;3707;43.618;25.342;2023-03-20T09:02:10;100478.75;;;14.73;80.73
7333;BME280;3707;43.618;25.342;2023-03-20T09:04:37;100474.50;;;14.91;79.24
7333;BME280;3707;43.618;25.342;2023-03-20T09:07:04;100484.13;;;15.11;76.90
7333;BME280;3707;43.618;25.342;2023-03-20T09:09:30;100479.81;;;15.27;75.69
7333;BME280;3707;43.618;25.342;2023-03-20T09:11:58;100467.66;;;15.39;75.20
7333;BME280;3707;43.618;25.342;2023-03-20T09:14:27;100476.41;;;15.63;74.19
7333;BME280;3707;43.618;25.342;2023-03-20T09:16:54;100452.88;;;15.48;74.38
7333;BME280;3707;43.618;25.342;2023-03-20T09:19:22;100483.38;;;15.59;73.28
7333;BME280;3707;43.618;25.342;2023-03-20T09:21:49;100435.41;;;15.34;73.31
7333;BME280;3707;43.618;25.342;2023-03-20T09:24:15;100473.81;;;15.54;74.64
7333;BME280;3707;43.618;25.342;2023-03-20T09:26:42;100473.75;;;15.42;75.88
7333;BME280;3707;43.618;25.342;2023-03-20T09:29:09;100478.97;;;15.29;78.36
7333;BME280;3707;43.618;25.342;2023-03-20T09:31:36;100478.13;;;15.47;78.71
7333;BME280;3707;43.618;25.342;2023-03-20T09:34:03;100476.41;;;15.51;77.25
7333;BME280;3707;43.618;25.342;2023-03-20T09:36:31;100472.88;;;15.32;78.56
7333;BME280;3707;43.618;25.342;2023-03-20T09:38:59;100451.09;;;15.25;78.43
7333;BME280;3707;43.618;25.342;2023-03-20T09:41:26;100469.34;;;15.18;79.09
7333;BME280;3707;43.618;25.342;2023-03-20T09:44:13;100469.38;;;15.22;80.60
7333;BME280;3707;43.618;25.342;2023-03-20T09:47:03;100465.97;;;15.54;81.81
7333;BME280;3707;43.618;25.342;2023-03-20T09:49:39;100462.50;;;15.76;78.02
7333;BME280;3707;43.618;25.342;2023-03-20T09:52:20;100465.94;;;16.14;75.66
7333;BME280;3707;43.618;25.342;2023-03-20T09:54:50;100458.06;;;16.31;73.51
7333;BME280;3707;43.618;25.342;2023-03-20T09:57:21;100445.88;;;16.25;73.85
7333;BME280;3707;43.618;25.342;2023-03-20T09:59:54;100450.16;;;16.45;74.30
7333;BME280;3707;43.618;25.342;2023-03-20T10:02:31;100448.44;;;16.51;72.40
7333;BME280;3707;43.618;25.342;2023-03-20T10:05:02;100436.16;;;16.76;70.46
7333;BME280;3707;43.618;25.342;2023-03-20T10:07:31;100446.50;;;16.96;67.57
7333;BME280;3707;43.618;25.342;2023-03-20T10:09:58;100436.84;;;17.07;66.62
7333;BME280;3707;43.618;25.342;2023-03-20T10:12:54;100437.66;;;17.16;65.58
7333;BME280;3707;43.618;25.342;2023-03-20T10:15:41;100442.00;;;17.20;65.98
7333;BME280;3707;43.618;25.342;2023-03-20T10:18:17;100426.16;;;17.39;63.40
7333;BME280;3707;43.618;25.342;2023-03-20T10:20:52;100448.72;;;17.64;61.55
7333;BME280;3707;43.618;25.342;2023-03-20T10:23:26;100436.47;;;17.69;63.90
7333;BME280;3707;43.618;25.342;2023-03-20T10:25:58;100439.22;;;17.46;60.44
7333;BME280;3707;43.618;25.342;2023-03-20T10:28:31;100439.91;;;17.74;56.48
7333;BME280;3707;43.618;25.342;2023-03-20T10:31:11;100430.94;;;17.99;55.93
7333;BME280;3707;43.618;25.342;2023-03-20T10:33:52;100432.41;;;18.26;55.88
7333;BME280;3707;43.618;25.342;2023-03-20T10:36:33;100373.84;;;18.21;56.60
7333;BME280;3707;43.618;25.342;2023-03-20T10:39:09;100418.81;;;17.84;56.37
7333;BME280;3707;43.618;25.342;2023-03-20T10:41:41;100425.47;;;18.20;57.92
7333;BME280;3707;43.618;25.342;2023-03-20T10:44:15;100412.09;;;18.43;56.54
7333;BME280;3707;43.618;25.342;2023-03-20T10:46:47;100409.25;;;18.63;57.34
7333;BME280;3707;43.618;25.342;2023-03-20T10:49:19;100411.22;;;18.43;58.16
7333;BME280;3707;43.618;25.342;2023-03-20T10:51:53;100400.78;;;18.37;58.80
7333;BME280;3707;43.618;25.342;2023-03-20T10:54:25;100411.41;;;18.24;59.25
7333;BME280;3707;43.618;25.342;2023-03-20T10:56:54;100403.44;;;18.35;59.65
7333;BME280;3707;43.618;25.342;2023-03-20T10:59:24;100402.38;;;18.50;58.08
7333;BME280;3707;43.618;25.342;2023-03-20T11:01:52;100404.59;;;18.08;58.41
7333;BME280;3707;43.618;25.342;2023-03-20T11:04:19;100396.66;;;18.14;58.04
7333;BME280;3707;43.618;25.342;2023-03-20T11:06:50;100392.44;;;18.00;58.95
7333;BME280;3707;43.618;25.342;2023-03-20T11:09:20;100382.88;;;17.93;60.04
7333;BME280;3707;43.618;25.342;2023-03-20T11:11:51;100379.84;;;18.32;60.66
7333;BME280;3707;43.618;25.342;2023-03-20T11:14:23;100378.72;;;18.53;58.35
7333;BME280;3707;43.618;25.342;2023-03-20T11:16:51;100379.34;;;18.73;56.53
7333;BME280;3707;43.618;25.342;2023-03-20T11:19:20;100370.91;;;18.51;56.73
7333;BME280;3707;43.618;25.342;2023-03-20T11:21:50;100356.88;;;18.51;57.24
7333;BME280;3707;43.618;25.342;2023-03-20T11:24:28;100351.22;;;18.81;55.98
7333;BME280;3707;43.618;25.342;2023-03-20T11:27:05;100366.50;;;19.14;55.41
7333;BME280;3707;43.618;25.342;2023-03-20T11:29:33;100331.22;;;18.72;54.94
7333;BME280;3707;43.618;25.342;2023-03-20T11:32:06;100358.97;;;18.89;55.49
7333;BME280;3707;43.618;25.342;2023-03-20T11:34:36;100342.88;;;19.10;55.01
7333;BME280;3707;43.618;25.342;2023-03-20T11:37:17;100328.09;;;19.04;54.53
7333;BME280;3707;43.618;25.342;2023-03-20T11:39:55;100345.47;;;19.14;54.53
7333;BME280;3707;43.618;25.342;2023-03-20T11:42:26;100338.94;;;18.83;54.06
7333;BME280;3707;43.618;25.342;2023-03-20T11:44:57;100335.31;;;18.90;53.96
7333;BME280;3707;43.618;25.342;2023-03-20T11:47:26;100327.91;;;18.57;54.36
7333;BME280;3707;43.618;25.342;2023-03-20T11:49:55;100327.06;;;18.55;54.62
7333;BME280;3707;43.618;25.342;2023-03-20T11:52:24;100325.13;;;18.69;53.66
7333;BME280;3707;43.618;25.342;2023-03-20T11:54:54;100323.19;;;18.80;54.18
7333;BME280;3707;43.618;25.342;2023-03-20T11:57:30;100317.47;;;18.49;54.60
7333;BME280;3707;43.618;25.342;2023-03-20T12:00:01;100314.06;;;18.44;54.87
7333;BME280;3707;43.618;25.342;2023-03-20T12:02:28;100303.66;;;18.37;54.30
7333;BME280;3707;43.618;25.342;2023-03-20T12:04:58;100313.00;;;18.59;52.91
7333;BME280;3707;43.618;25.342;2023-03-20T12:07:28;100304.84;;;18.77;51.87
7333;BME280;3707;43.618;25.342;2023-03-20T12:09:57;100304.78;;;18.81;51.31
7333;BME280;3707;43.618;25.342;2023-03-20T12:12:35;100301.72;;;18.49;51.93
7333;BME280;3707;43.618;25.342;2023-03-20T12:15:13;100301.50;;;18.66;51.78
7333;BME280;3707;43.618;25.342;2023-03-20T12:17:46;100303.13;;;18.74;52.25
7333;BME280;3707;43.618;25.342;2023-03-20T12:20:31;100254.03;;;18.78;52.06
7333;BME280;3707;43.618;25.342;2023-03-20T12:23:10;100301.94;;;18.95;50.87
7333;BME280;3707;43.618;25.342;2023-03-20T12:25:43;100300.25;;;18.93;50.98
7333;BME280;3707;43.618;25.342;2023-03-20T12:28:19;100278.34;;;18.91;50.25
7333;BME280;3707;43.618;25.342;2023-03-20T12:30:58;100294.75;;;19.06;50.15
7333;BME280;3707;43.618;25.342;2023-03-20T12:33:39;100265.16;;;18.95;50.81
7333;BME280;3707;43.618;25.342;2023-03-20T12:36:12;100280.88;;;18.98;49.92
7333;BME280;3707;43.618;25.342;2023-03-20T12:38:40;100278.75;;;19.21;49.60
7333;BME280;3707;43.618;25.342;2023-03-20T12:41:12;100277.88;;;19.19;52.76
7333;BME280;3707;43.618;25.342;2023-03-20T12:44:03;100266.72;;;19.08;49.77
7333;BME280;3707;43.618;25.342;2023-03-20T12:46:38;100273.25;;;18.83;50.30
7333;BME280;3707;43.618;25.342;2023-03-20T12:49:15;100274.66;;;19.02;49.90
7333;BME280;3707;43.618;25.342;2023-03-20T12:51:53;100263.78;;;19.25;48.92
7333;BME280;3707;43.618;25.342;2023-03-20T12:54:53;100241.13;;;19.18;48.63
7333;BME280;3707;43.618;25.342;2023-03-20T12:57:26;100257.59;;;19.29;47.95
7333;BME280;3707;43.618;25.342;2023-03-20T13:00:11;100256.56;;;19.36;47.04
7333;BME280;3707;43.618;25.342;2023-03-20T13:02:46;100245.75;;;19.54;47.28
7333;BME280;3707;43.618;25.342;2023-03-20T13:05:27;100255.34;;;19.57;46.87
7333;BME280;3707;43.618;25.342;2023-03-20T13:08:15;100248.25;;;19.62;46.76
7333;BME280;3707;43.618;25.342;2023-03-20T13:10:52;100253.97;;;19.35;46.95
7333;BME280;3707;43.618;25.342;2023-03-20T13:13:28;100234.59;;;19.39;46.96
7333;BME280;3707;43.618;25.342;2023-03-20T13:16:08;100232.41;;;19.65;46.16
7333;BME280;3707;43.618;25.342;2023-03-20T13:18:49;100231.13;;;19.84;45.61
7333;BME280;3707;43.618;25.342;2023-03-20T13:21:23;100226.66;;;19.88;44.97